Time;durP1;ratioP1;P1;durP2;ratioP2;P2;SDS_P1;SDS_P2;PMS_P1;PMS_P2;Temp;Humidity;BMP_temperature;BMP_pressure;BME280_temperature;BME280_humidity;BME280_pressure;Samples;Min_cycle;Max_cycle;Signal;HPM_P1;HPM_P2
2023/08/04 00:00:05;;;;;;;10.10;8.90;;;;;;;;;;4995684;28;20053;-85
2023/08/04 00:02:31;;;;;;;16.58;9.13;;;;;;;;;;5013989;28;20069;-84
2023/08/04 00:04:56;;;;;;;9.60;8.70;;;;;;;;;;4995272;28;20049;-85
2023/08/04 00:07:22;;;;;;;10.98;9.38;;;;;;;;;;5011369;28;20033;-85
2023/08/04 00:09:47;;;;;;;10.05;9.13;;;;;;;;;;4990936;28;20096;-84
2023/08/04 00:12:13;;;;;;;9.20;8.20;;;;;;;;;;4995125;28;20049;-84
2023/08/04 00:14:38;;;;;;;10.20;9.20;;;;;;;;;;4995903;28;20038;-85
2023/08/04 00:17:03;;;;;;;10.05;9.10;;;;;;;;;;5011682;28;20121;-85
2023/08/04 00:19:29;;;;;;;10.43;9.43;;;;;;;;;;5012071;28;20030;-85
2023/08/04 00:21:55;;;;;;;10.85;9.15;;;;;;;;;;5011828;28;20400;-83
2023/08/04 00:24:20;;;;;;;11.32;9.82;;;;;;;;;;4992049;28;20022;-84
2023/08/04 00:26:46;;;;;;;10.68;9.57;;;;;;;;;;5011426;28;20048;-85
2023/08/04 00:29:11;;;;;;;11.52;9.70;;;;;;;;;;4992283;28;20121;-84
2023/08/04 00:31:37;;;;;;;9.57;8.48;;;;;;;;;;5010251;28;20041;-84
2023/08/04 00:34:02;;;;;;;10.35;9.32;;;;;;;;;;5011756;28;20033;-85
2023/08/04 00:36:28;;;;;;;12.80;9.40;;;;;;;;;;4995353;28;20128;-85
2023/08/04 00:38:54;;;;;;;12.48;9.45;;;;;;;;;;5013452;28;20065;-85
2023/08/04 00:41:19;;;;;;;11.60;9.90;;;;;;;;;;5011291;28;20049;-85
2023/08/04 00:43:45;;;;;;;10.88;9.88;;;;;;;;;;5011713;28;20029;-84
2023/08/04 00:46:10;;;;;;;12.30;9.60;;;;;;;;;;5011151;28;20045;-84
2023/08/04 00:48:37;;;;;;;10.75;9.63;;;;;;;;;;5011619;28;20116;-84
2023/08/04 00:51:04;;;;;;;11.75;10.65;;;;;;;;;;4995106;28;20022;-85
2023/08/04 00:53:30;;;;;;;11.38;10.07;;;;;;;;;;4995153;28;20021;-84
2023/08/04 00:55:55;;;;;;;11.38;9.18;;;;;;;;;;5011288;28;20125;-84
2023/08/04 00:58:21;;;;;;;12.07;10.35;;;;;;;;;;5011365;28;20087;-84
2023/08/04 01:00:47;;;;;;;11.18;10.02;;;;;;;;;;4993901;28;20528;-84
2023/08/04 01:03:13;;;;;;;11.27;10.18;;;;;;;;;;5011444;28;20022;-84
2023/08/04 01:06:00;;;;;;;11.50;10.40;;;;;;;;;;5011134;28;20042;-84
2023/08/04 01:08:28;;;;;;;11.00;9.88;;;;;;;;;;5009485;28;20054;-84
2023/08/04 01:11:12;;;;;;;11.55;10.45;;;;;;;;;;5031703;28;20040;-84
2023/08/04 01:13:38;;;;;;;11.63;10.50;;;;;;;;;;5014684;28;20037;-84
2023/08/04 01:16:04;;;;;;;11.52;10.32;;;;;;;;;;5014060;28;20117;-84
2023/08/04 01:18:30;;;;;;;11.38;10.27;;;;;;;;;;4982153;28;20599;-84
2023/08/04 01:21:00;;;;;;;11.32;10.25;;;;;;;;;;4995569;28;20121;-84
2023/08/04 01:23:25;;;;;;;11.45;10.32;;;;;;;;;;5012468;28;20489;-84
2023/08/04 01:25:51;;;;;;;11.30;10.20;;;;;;;;;;5031734;28;20029;-85
2023/08/04 01:28:17;;;;;;;11.85;10.63;;;;;;;;;;5014601;28;20038;-84
2023/08/04 01:30:43;;;;;;;15.13;10.43;;;;;;;;;;5013724;28;20507;-84
2023/08/04 01:33:09;;;;;;;12.27;11.02;;;;;;;;;;5013455;28;20037;-85
2023/08/04 01:35:34;;;;;;;11.55;10.35;;;;;;;;;;5015859;28;20030;-84
2023/08/04 01:37:59;;;;;;;12.68;10.50;;;;;;;;;;5014574;28;20037;-84
2023/08/04 01:40:25;;;;;;;11.45;10.32;;;;;;;;;;5016070;28;20068;-84
2023/08/04 01:42:50;;;;;;;11.63;10.43;;;;;;;;;;5014756;28;20034;-85
2023/08/04 01:45:16;;;;;;;11.25;10.25;;;;;;;;;;4982120;28;20030;-84
2023/08/04 01:47:41;;;;;;;11.63;10.43;;;;;;;;;;5011942;28;20065;-84
2023/08/04 01:50:10;;;;;;;11.98;10.75;;;;;;;;;;5015080;28;20032;-84
2023/08/04 01:52:36;;;;;;;11.68;10.57;;;;;;;;;;5013847;28;20163;-84
2023/08/04 01:55:01;;;;;;;12.60;11.10;;;;;;;;;;4998045;28;20478;-84
2023/08/04 01:57:27;;;;;;;12.40;11.18;;;;;;;;;;4997766;28;20038;-84
2023/08/04 01:59:52;;;;;;;12.02;10.93;;;;;;;;;;5014268;28;20200;-84
2023/08/04 02:02:18;;;;;;;12.65;11.30;;;;;;;;;;5015280;28;20076;-84
2023/08/04 02:04:43;;;;;;;13.10;11.75;;;;;;;;;;5015605;28;20036;-84
2023/08/04 02:07:08;;;;;;;14.80;11.65;;;;;;;;;;5013975;28;20037;-84
2023/08/04 02:09:34;;;;;;;13.00;11.73;;;;;;;;;;5014022;28;20115;-84
2023/08/04 02:11:59;;;;;;;12.85;11.48;;;;;;;;;;5013545;28;20061;-84
2023/08/04 02:14:25;;;;;;;12.93;11.60;;;;;;;;;;5014891;28;20077;-84
2023/08/04 02:16:50;;;;;;;12.82;11.70;;;;;;;;;;5014163;28;20121;-84
2023/08/04 02:19:16;;;;;;;14.13;11.50;;;;;;;;;;5013686;28;20041;-84
2023/08/04 02:21:41;;;;;;;12.63;11.25;;;;;;;;;;5013418;28;20037;-84
2023/08/04 02:24:07;;;;;;;14.25;10.48;;;;;;;;;;4997345;28;20205;-84
2023/08/04 02:26:32;;;;;;;12.32;11.13;;;;;;;;;;5013559;28;20489;-85
2023/08/04 02:28:58;;;;;;;13.07;11.77;;;;;;;;;;4997485;28;20029;-84
2023/08/04 02:31:24;;;;;;;13.02;11.73;;;;;;;;;;4997105;28;20022;-84
2023/08/04 02:33:49;;;;;;;14.40;11.00;;;;;;;;;;4993878;28;20022;-84
2023/08/04 02:36:15;;;;;;;13.73;12.45;;;;;;;;;;5009817;28;20124;-84
2023/08/04 02:38:41;;;;;;;12.63;11.43;;;;;;;;;;5013862;28;20032;-84
2023/08/04 02:41:07;;;;;;;13.63;11.27;;;;;;;;;;4997124;28;20038;-84
2023/08/04 02:43:32;;;;;;;13.98;12.13;;;;;;;;;;5012101;28;20029;-84
2023/08/04 02:45:58;;;;;;;12.63;11.02;;;;;;;;;;5030010;28;20046;-84
2023/08/04 02:48:23;;;;;;;12.80;10.95;;;;;;;;;;5014698;28;20041;-84
2023/08/04 02:51:08;;;;;;;11.82;10.73;;;;;;;;;;5013162;28;20034;-84
2023/08/04 02:53:33;;;;;;;12.07;10.77;;;;;;;;;;5014957;28;20033;-84
2023/08/04 02:55:59;;;;;;;11.88;10.63;;;;;;;;;;4996711;28;20076;-84
2023/08/04 02:58:25;;;;;;;12.23;9.73;;;;;;;;;;5014321;28;20034;-84
2023/08/04 03:00:50;;;;;;;10.80;9.75;;;;;;;;;;4980295;28;20022;-85
2023/08/04 03:03:17;;;;;;;12.18;10.60;;;;;;;;;;4997032;28;20519;-84
2023/08/04 03:05:42;;;;;;;10.80;9.80;;;;;;;;;;5014005;28;20033;-84
2023/08/04 03:08:08;;;;;;;11.18;9.90;;;;;;;;;;5013148;28;20413;-84
2023/08/04 03:10:33;;;;;;;11.20;9.93;;;;;;;;;;5012654;28;20129;-84
2023/08/04 03:12:58;;;;;;;12.02;10.35;;;;;;;;;;4993090;28;20054;-84
2023/08/04 03:15:24;;;;;;;11.98;10.77;;;;;;;;;;5007775;28;20034;-84
2023/08/04 03:17:50;;;;;;;10.57;9.48;;;;;;;;;;5013454;28;20448;-84
2023/08/04 03:20:15;;;;;;;10.77;9.77;;;;;;;;;;5014117;28;20041;-84
2023/08/04 03:22:41;;;;;;;10.32;9.32;;;;;;;;;;5013618;28;20405;-84
2023/08/04 03:25:08;;;;;;;13.55;9.82;;;;;;;;;;5012947;28;20038;-84
2023/08/04 03:27:33;;;;;;;10.45;8.98;;;;;;;;;;5012910;28;20030;-84
2023/08/04 03:29:59;;;;;;;11.27;9.88;;;;;;;;;;5013362;28;20409;-84
2023/08/04 03:32:24;;;;;;;11.60;9.75;;;;;;;;;;5012796;28;20084;-84
2023/08/04 03:34:50;;;;;;;10.35;9.25;;;;;;;;;;5014283;28;20030;-84
2023/08/04 03:37:15;;;;;;;9.65;8.75;;;;;;;;;;5012429;28;20103;-84
2023/08/04 03:39:40;;;;;;;11.80;8.95;;;;;;;;;;5014105;28;20033;-84
2023/08/04 03:42:06;;;;;;;11.27;9.07;;;;;;;;;;5012492;28;20033;-84
2023/08/04 03:44:31;;;;;;;11.68;9.00;;;;;;;;;;5011526;28;20040;-84
2023/08/04 03:46:57;;;;;;;9.90;8.90;;;;;;;;;;5013542;28;20111;-84
2023/08/04 03:49:22;;;;;;;10.23;9.05;;;;;;;;;;5014406;28;20400;-84
2023/08/04 03:51:48;;;;;;;11.18;9.32;;;;;;;;;;5013768;28;20026;-84
2023/08/04 03:54:14;;;;;;;10.93;9.23;;;;;;;;;;5012755;28;20040;-84
2023/08/04 03:56:39;;;;;;;13.13;9.05;;;;;;;;;;4996291;28;20025;-84
2023/08/04 03:59:05;;;;;;;11.05;8.82;;;;;;;;;;5013082;28;20033;-84
2023/08/04 04:01:30;;;;;;;10.77;8.80;;;;;;;;;;5012216;28;20112;-84
2023/08/04 04:03:55;;;;;;;11.35;8.85;;;;;;;;;;4992692;28;20501;-83
2023/08/04 04:06:21;;;;;;;11.02;9.23;;;;;;;;;;5013204;28;20504;-84
2023/08/04 04:08:46;;;;;;;12.07;9.10;;;;;;;;;;5011345;28;20065;-84
2023/08/04 04:11:12;;;;;;;10.00;9.00;;;;;;;;;;5013224;28;20025;-84
2023/08/04 04:13:37;;;;;;;10.13;9.00;;;;;;;;;;5009996;28;20054;-84
2023/08/04 04:16:03;;;;;;;15.40;8.90;;;;;;;;;;4995424;28;20125;-84
2023/08/04 04:18:28;;;;;;;12.95;9.10;;;;;;;;;;5011911;28;20109;-84
2023/08/04 04:20:54;;;;;;;11.75;8.40;;;;;;;;;;5028398;28;20053;-84
2023/08/04 04:23:19;;;;;;;12.75;8.35;;;;;;;;;;5011718;28;20041;-84
2023/08/04 04:25:45;;;;;;;9.95;8.10;;;;;;;;;;5028185;28;20033;-84
2023/08/04 04:28:10;;;;;;;10.80;8.63;;;;;;;;;;5011292;28;20125;-85
2023/08/04 04:30:35;;;;;;;8.95;7.80;;;;;;;;;;5018591;28;20019;-82
2023/08/04 04:33:01;;;;;;;9.55;7.80;;;;;;;;;;5020843;28;20034;-85
2023/08/04 04:35:26;;;;;;;9.80;8.25;;;;;;;;;;5008578;28;20513;-84
2023/08/04 04:37:52;;;;;;;8.30;7.43;;;;;;;;;;5012623;28;20405;-84
2023/08/04 04:40:17;;;;;;;9.45;7.65;;;;;;;;;;5013990;28;20105;-85
2023/08/04 04:42:43;;;;;;;8.80;7.72;;;;;;;;;;5015583;28;20030;-84
2023/08/04 04:45:08;;;;;;;11.45;7.50;;;;;;;;;;5014528;28;20485;-85
2023/08/04 04:47:34;;;;;;;9.57;7.90;;;;;;;;;;5014985;28;20034;-85
2023/08/04 04:49:59;;;;;;;9.57;8.30;;;;;;;;;;5015510;28;20026;-85
2023/08/04 04:52:32;;;;;;;11.60;7.88;;;;;;;;;;5016298;28;20125;-84
2023/08/04 04:54:59;;;;;;;10.38;7.68;;;;;;;;;;5015613;28;20022;-84
2023/08/04 04:57:24;;;;;;;9.30;8.13;;;;;;;;;;5016940;28;20531;-83
2023/08/04 04:59:50;;;;;;;10.05;7.68;;;;;;;;;;5016783;28;20049;-86
2023/08/04 05:02:15;;;;;;;9.40;8.00;;;;;;;;;;5016198;28;20038;-84
2023/08/04 05:04:40;;;;;;;9.35;8.20;;;;;;;;;;5006389;28;20108;-83
2023/08/04 05:07:06;;;;;;;9.65;8.48;;;;;;;;;;4993784;28;20045;-83
2023/08/04 05:09:31;;;;;;;8.73;7.68;;;;;;;;;;5031486;28;20077;-83
2023/08/04 05:11:57;;;;;;;9.63;7.90;;;;;;;;;;5032693;28;20030;-83
2023/08/04 05:14:22;;;;;;;9.23;7.78;;;;;;;;;;5014698;28;20089;-81
2023/08/04 05:16:48;;;;;;;10.15;7.38;;;;;;;;;;5013991;28;20038;-82
2023/08/04 05:19:13;;;;;;;8.57;7.53;;;;;;;;;;5011034;28;20033;-84
2023/08/04 05:21:39;;;;;;;11.63;8.35;;;;;;;;;;4993918;28;20508;-83
2023/08/04 05:24:04;;;;;;;9.23;7.82;;;;;;;;;;5015844;28;20065;-83
2023/08/04 05:26:30;;;;;;;10.25;7.75;;;;;;;;;;5013904;28;20038;-82
2023/08/04 05:28:55;;;;;;;9.45;8.07;;;;;;;;;;5014139;28;20076;-84
2023/08/04 05:31:21;;;;;;;9.32;7.60;;;;;;;;;;5014329;28;20018;-84
2023/08/04 05:33:46;;;;;;;8.70;7.80;;;;;;;;;;5014279;28;20056;-84
2023/08/04 05:36:12;;;;;;;7.88;7.07;;;;;;;;;;5014401;28;20030;-84
2023/08/04 05:38:38;;;;;;;8.07;6.97;;;;;;;;;;5010199;28;20532;-84
2023/08/04 05:41:04;;;;;;;7.82;6.45;;;;;;;;;;5030980;28;20061;-84
2023/08/04 05:43:30;;;;;;;6.70;5.47;;;;;;;;;;5009606;28;20038;-84
2023/08/04 05:45:58;;;;;;;9.65;6.15;;;;;;;;;;5008331;28;20030;-86
2023/08/04 05:48:49;;;;;;;10.40;6.05;;;;;;;;;;5014792;28;20049;-87
2023/08/04 05:51:14;;;;;;;7.50;5.70;;;;;;;;;;4997731;28;20412;-83
2023/08/04 05:53:41;;;;;;;7.32;4.70;;;;;;;;;;4996311;28;20026;-85
2023/08/04 05:56:06;;;;;;;7.75;5.10;;;;;;;;;;4978379;28;20501;-85
2023/08/04 05:58:32;;;;;;;9.35;5.50;;;;;;;;;;5014047;28;20034;-86
2023/08/04 06:00:58;;;;;;;6.10;4.60;;;;;;;;;;5013785;28;20033;-86
2023/08/04 06:03:23;;;;;;;5.88;5.28;;;;;;;;;;5015386;28;20029;-85
2023/08/04 06:05:48;;;;;;;8.23;5.30;;;;;;;;;;5014855;28;20068;-86
2023/08/04 06:08:14;;;;;;;6.25;5.40;;;;;;;;;;5014169;28;20034;-84
2023/08/04 06:10:39;;;;;;;7.40;5.93;;;;;;;;;;5014019;28;20084;-85
2023/08/04 06:13:05;;;;;;;6.63;5.28;;;;;;;;;;5015066;28;20076;-85
2023/08/04 06:15:31;;;;;;;8.60;5.50;;;;;;;;;;5013474;28;20165;-86
2023/08/04 06:17:59;;;;;;;9.02;5.20;;;;;;;;;;5015516;28;20030;-87
2023/08/04 06:20:24;;;;;;;8.18;4.95;;;;;;;;;;5013748;28;20040;-86
2023/08/04 06:22:50;;;;;;;7.30;4.93;;;;;;;;;;5013806;28;20034;-85
2023/08/04 06:25:15;;;;;;;9.57;5.00;;;;;;;;;;4994775;28;20057;-85
2023/08/04 06:27:41;;;;;;;6.78;5.38;;;;;;;;;;5013455;28;20025;-85
2023/08/04 06:30:07;;;;;;;7.53;5.30;;;;;;;;;;5014595;28;20120;-84
2023/08/04 06:32:35;;;;;;;6.50;5.13;;;;;;;;;;5011280;28;20026;-84
2023/08/04 06:35:01;;;;;;;6.20;5.25;;;;;;;;;;5014558;28;20033;-87
2023/08/04 06:37:26;;;;;;;8.73;5.32;;;;;;;;;;5013255;28;20030;-86
2023/08/04 06:39:52;;;;;;;6.70;4.88;;;;;;;;;;4993714;28;20026;-85
2023/08/04 06:42:17;;;;;;;6.93;4.80;;;;;;;;;;5013654;28;20548;-85
2023/08/04 06:44:43;;;;;;;6.18;4.90;;;;;;;;;;5013004;28;20049;-85
2023/08/04 06:47:09;;;;;;;6.65;5.03;;;;;;;;;;5013084;28;20029;-85
2023/08/04 06:49:35;;;;;;;8.45;5.57;;;;;;;;;;5012773;28;20040;-85
2023/08/04 06:52:00;;;;;;;5.18;4.50;;;;;;;;;;5012956;28;20033;-85
2023/08/04 06:54:26;;;;;;;9.23;4.63;;;;;;;;;;5012654;28;20030;-85
2023/08/04 06:56:51;;;;;;;9.63;5.10;;;;;;;;;;5014082;28;20021;-85
2023/08/04 06:59:17;;;;;;;6.50;4.80;;;;;;;;;;5012413;28;20038;-84
2023/08/04 07:01:42;;;;;;;6.68;4.63;;;;;;;;;;5013857;28;20428;-85
2023/08/04 07:04:08;;;;;;;5.00;4.40;;;;;;;;;;5012532;28;20100;-86
2023/08/04 07:06:34;;;;;;;7.82;4.50;;;;;;;;;;5013739;28;20033;-85
2023/08/04 07:08:59;;;;;;;7.00;3.45;;;;;;;;;;5012722;28;20042;-85
2023/08/04 07:11:25;;;;;;;5.97;3.88;;;;;;;;;;5011081;28;20024;-86
2023/08/04 07:13:50;;;;;;;5.40;3.70;;;;;;;;;;5013045;28;20394;-85
2023/08/04 07:16:16;;;;;;;5.90;4.00;;;;;;;;;;5028970;28;20042;-85
2023/08/04 07:18:41;;;;;;;5.60;3.97;;;;;;;;;;5013596;28;20369;-86
2023/08/04 07:21:07;;;;;;;5.25;3.35;;;;;;;;;;5013431;28;20030;-85
2023/08/04 07:23:32;;;;;;;4.75;3.45;;;;;;;;;;5012263;28;20042;-85
2023/08/04 07:25:58;;;;;;;5.15;3.70;;;;;;;;;;5028607;28;20098;-85
2023/08/04 07:28:23;;;;;;;4.22;3.60;;;;;;;;;;5011985;28;20034;-85
2023/08/04 07:30:49;;;;;;;7.70;3.47;;;;;;;;;;5013208;28;20033;-85
2023/08/04 07:33:14;;;;;;;5.72;3.40;;;;;;;;;;5013232;28;20103;-85
2023/08/04 07:35:40;;;;;;;5.47;3.28;;;;;;;;;;5013187;28;20026;-85
2023/08/04 07:38:05;;;;;;;3.85;3.35;;;;;;;;;;5013044;28;20036;-85
2023/08/04 07:40:31;;;;;;;5.10;3.75;;;;;;;;;;5028490;28;20104;-86
2023/08/04 07:42:56;;;;;;;4.85;3.55;;;;;;;;;;5012165;28;20046;-84
2023/08/04 07:45:21;;;;;;;4.47;3.42;;;;;;;;;;5013247;28;20064;-85
2023/08/04 07:47:47;;;;;;;5.65;3.40;;;;;;;;;;5012937;28;20040;-85
2023/08/04 07:50:12;;;;;;;3.95;3.28;;;;;;;;;;5013141;28;20057;-85
2023/08/04 07:52:38;;;;;;;8.48;3.40;;;;;;;;;;5012649;28;20559;-86
2023/08/04 07:55:03;;;;;;;4.30;3.35;;;;;;;;;;5012933;28;20370;-85
2023/08/04 07:57:29;;;;;;;5.40;3.40;;;;;;;;;;5011221;28;20393;-86
2023/08/04 07:59:54;;;;;;;4.75;3.30;;;;;;;;;;5011515;28;20030;-86
2023/08/04 08:02:20;;;;;;;4.20;3.17;;;;;;;;;;5009929;28;20041;-84
2023/08/04 08:04:45;;;;;;;3.65;3.00;;;;;;;;;;5012397;28;20036;-85
2023/08/04 08:07:11;;;;;;;3.70;3.00;;;;;;;;;;5012607;28;20032;-87
2023/08/04 08:09:36;;;;;;;4.20;3.03;;;;;;;;;;5012867;28;20030;-84
2023/08/04 08:12:02;;;;;;;5.20;2.97;;;;;;;;;;5012593;28;20036;-84
2023/08/04 08:14:27;;;;;;;4.40;3.25;;;;;;;;;;5012692;28;20033;-86
2023/08/04 08:16:53;;;;;;;4.15;3.33;;;;;;;;;;5010296;28;20029;-86
2023/08/04 08:19:18;;;;;;;3.30;2.80;;;;;;;;;;5013094;28;20033;-86
2023/08/04 08:21:44;;;;;;;7.72;3.40;;;;;;;;;;5012591;28;20036;-87
2023/08/04 08:24:10;;;;;;;4.70;3.25;;;;;;;;;;5023413;28;20026;-84
2023/08/04 08:26:35;;;;;;;4.50;3.00;;;;;;;;;;5027812;28;20402;-86
2023/08/04 08:29:02;;;;;;;3.97;3.22;;;;;;;;;;5022994;28;20030;-86
2023/08/04 08:31:27;;;;;;;5.13;3.20;;;;;;;;;;5011736;28;20034;-84
2023/08/04 08:33:53;;;;;;;6.05;3.65;;;;;;;;;;5013060;28;20022;-86
2023/08/04 08:36:19;;;;;;;4.80;3.20;;;;;;;;;;5013026;28;20033;-86
2023/08/04 08:38:44;;;;;;;3.55;3.08;;;;;;;;;;5012139;28;20413;-86
2023/08/04 08:41:11;;;;;;;6.57;3.42;;;;;;;;;;5012288;28;20111;-85
2023/08/04 08:43:37;;;;;;;5.28;3.40;;;;;;;;;;5012102;28;20030;-86
2023/08/04 08:46:03;;;;;;;4.45;3.05;;;;;;;;;;5012022;28;20048;-85
2023/08/04 08:48:29;;;;;;;3.70;3.00;;;;;;;;;;5013020;28;20069;-85
2023/08/04 08:50:57;;;;;;;4.68;3.05;;;;;;;;;;5011361;28;20058;-86
2023/08/04 08:53:23;;;;;;;6.22;3.60;;;;;;;;;;5011619;28;20026;-86
2023/08/04 08:55:49;;;;;;;3.97;3.40;;;;;;;;;;5012586;28;20428;-86
2023/08/04 08:58:14;;;;;;;6.03;3.50;;;;;;;;;;5011387;28;20041;-86
2023/08/04 09:00:40;;;;;;;6.03;3.25;;;;;;;;;;5010922;28;20053;-86
2023/08/04 09:03:05;;;;;;;6.00;3.20;;;;;;;;;;5011681;28;20037;-85
2023/08/04 09:05:31;;;;;;;3.75;2.90;;;;;;;;;;5012195;28;20042;-83
2023/08/04 09:07:57;;;;;;;4.78;3.60;;;;;;;;;;5011296;28;20045;-87
2023/08/04 09:10:22;;;;;;;5.68;3.60;;;;;;;;;;5012551;28;20515;-84
2023/08/04 09:12:48;;;;;;;5.45;3.70;;;;;;;;;;5012571;28;20046;-85
2023/08/04 09:15:14;;;;;;;7.90;3.30;;;;;;;;;;5011537;28;20025;-84
2023/08/04 09:17:40;;;;;;;4.10;3.63;;;;;;;;;;5010841;28;20041;-86
2023/08/04 09:20:06;;;;;;;4.93;3.63;;;;;;;;;;5013775;28;20037;-86
2023/08/04 09:22:34;;;;;;;4.70;3.75;;;;;;;;;;5011783;28;20029;-86
2023/08/04 09:25:03;;;;;;;7.78;4.03;;;;;;;;;;5011171;28;20095;-86
2023/08/04 09:27:38;;;;;;;3.80;3.38;;;;;;;;;;5013264;28;20030;-86
2023/08/04 09:30:05;;;;;;;4.37;3.60;;;;;;;;;;5014664;28;20559;-86
2023/08/04 09:32:31;;;;;;;5.05;4.10;;;;;;;;;;5014706;28;20029;-86
2023/08/04 09:35:04;;;;;;;5.60;3.70;;;;;;;;;;5016212;28;20113;-86
2023/08/04 09:37:30;;;;;;;4.32;3.60;;;;;;;;;;5009675;28;20124;-85
2023/08/04 09:39:55;;;;;;;6.30;3.95;;;;;;;;;;5015516;28;20048;-85
2023/08/04 09:42:24;;;;;;;6.25;4.03;;;;;;;;;;5014332;28;20404;-86
2023/08/04 09:44:51;;;;;;;4.60;3.40;;;;;;;;;;5015469;28;20508;-85
2023/08/04 09:47:16;;;;;;;5.38;3.50;;;;;;;;;;5014481;28;20045;-86
2023/08/04 09:49:42;;;;;;;5.18;3.70;;;;;;;;;;5015230;28;20022;-85
2023/08/04 09:52:07;;;;;;;7.40;3.75;;;;;;;;;;5015522;28;20037;-85
2023/08/04 09:54:32;;;;;;;5.75;3.88;;;;;;;;;;5014087;28;20037;-86
2023/08/04 09:56:58;;;;;;;4.85;4.00;;;;;;;;;;5015288;28;20084;-86
2023/08/04 09:59:23;;;;;;;5.95;3.83;;;;;;;;;;5013899;28;20034;-85
2023/08/04 10:01:49;;;;;;;5.13;3.80;;;;;;;;;;5014312;28;20045;-85
2023/08/04 10:04:14;;;;;;;4.88;3.90;;;;;;;;;;5013557;28;20112;-86
2023/08/04 10:06:40;;;;;;;5.05;3.65;;;;;;;;;;5015625;28;20042;-86
2023/08/04 10:09:05;;;;;;;4.60;3.58;;;;;;;;;;5014057;28;20026;-86
2023/08/04 10:11:31;;;;;;;5.47;4.28;;;;;;;;;;4997758;28;20037;-87
2023/08/04 10:13:56;;;;;;;5.70;3.90;;;;;;;;;;5014891;28;20460;-86
2023/08/04 10:16:22;;;;;;;5.13;3.95;;;;;;;;;;5014500;28;20034;-87
2023/08/04 10:18:52;;;;;;;7.03;4.10;;;;;;;;;;5012844;28;20025;-86
2023/08/04 10:21:32;;;;;;;6.20;3.83;;;;;;;;;;4997758;28;20041;-86
2023/08/04 10:23:58;;;;;;;5.05;3.72;;;;;;;;;;5010131;28;20068;-87
2023/08/04 10:26:24;;;;;;;5.88;3.70;;;;;;;;;;5013801;28;20040;-86
2023/08/04 10:29:04;;;;;;;6.13;4.03;;;;;;;;;;5014303;28;20401;-87
2023/08/04 10:31:51;;;;;;;6.82;3.35;;;;;;;;;;5012718;28;20027;-86
2023/08/04 10:34:17;;;;;;;7.13;3.60;;;;;;;;;;5015022;28;20481;-86
2023/08/04 10:37:15;;;;;;;5.50;3.55;;;;;;;;;;5008205;28;20029;-86
2023/08/04 10:39:41;;;;;;;6.22;3.75;;;;;;;;;;4984085;28;20033;-87
2023/08/04 10:42:13;;;;;;;4.75;3.20;;;;;;;;;;4996874;28;20495;-86
2023/08/04 10:44:48;;;;;;;4.50;3.13;;;;;;;;;;4996058;28;20060;-86
2023/08/04 10:47:14;;;;;;;5.65;3.50;;;;;;;;;;5014782;28;20057;-87
2023/08/04 10:49:39;;;;;;;7.15;3.35;;;;;;;;;;4994152;28;20026;-86
2023/08/04 10:52:05;;;;;;;7.45;3.22;;;;;;;;;;5014720;28;20037;-86
2023/08/04 10:54:30;;;;;;;8.25;3.38;;;;;;;;;;5014040;28;20459;-86
2023/08/04 10:56:56;;;;;;;4.00;2.83;;;;;;;;;;5014728;28;20144;-86
2023/08/04 10:59:21;;;;;;;4.05;2.63;;;;;;;;;;5013539;28;20080;-86
2023/08/04 11:01:47;;;;;;;4.95;2.70;;;;;;;;;;5013579;28;20054;-86
2023/08/04 11:04:14;;;;;;;4.60;2.78;;;;;;;;;;4994870;28;20034;-87
2023/08/04 11:06:39;;;;;;;5.38;2.88;;;;;;;;;;5012959;28;20049;-85
2023/08/04 11:09:05;;;;;;;4.50;3.10;;;;;;;;;;5013714;28;20025;-86
2023/08/04 11:11:31;;;;;;;5.38;2.72;;;;;;;;;;5014786;28;20544;-86
2023/08/04 11:13:57;;;;;;;5.00;3.10;;;;;;;;;;5012777;28;20416;-87
2023/08/04 11:16:25;;;;;;;5.80;3.50;;;;;;;;;;5012958;28;20037;-86
2023/08/04 11:18:53;;;;;;;3.47;2.92;;;;;;;;;;5012527;28;20048;-86
2023/08/04 11:21:19;;;;;;;7.25;2.67;;;;;;;;;;5013972;28;20061;-87
2023/08/04 11:23:44;;;;;;;4.88;2.60;;;;;;;;;;5012310;28;20401;-86
2023/08/04 11:26:09;;;;;;;4.28;2.60;;;;;;;;;;5012117;28;20034;-86
2023/08/04 11:28:35;;;;;;;6.00;2.47;;;;;;;;;;5012180;28;20030;-86
2023/08/04 11:31:04;;;;;;;4.95;2.75;;;;;;;;;;5012679;28;20390;-86
2023/08/04 11:33:29;;;;;;;5.95;2.80;;;;;;;;;;5013676;28;20041;-86
2023/08/04 11:35:55;;;;;;;6.10;2.20;;;;;;;;;;4996162;28;20038;-86
2023/08/04 11:38:20;;;;;;;3.78;2.35;;;;;;;;;;5013462;28;20034;-87
2023/08/04 11:41:01;;;;;;;4.43;2.38;;;;;;;;;;5013723;28;20116;-86
2023/08/04 11:43:27;;;;;;;3.28;2.25;;;;;;;;;;5003005;28;20039;-85
2023/08/04 11:45:54;;;;;;;5.22;2.30;;;;;;;;;;5023665;28;20035;-86
2023/08/04 11:48:23;;;;;;;2.70;2.13;;;;;;;;;;5013876;28;20128;-88
2023/08/04 11:50:49;;;;;;;2.55;2.10;;;;;;;;;;5013199;28;20448;-87
2023/08/04 11:53:17;;;;;;;3.47;2.30;;;;;;;;;;5012236;28;20117;-87
2023/08/04 11:55:59;;;;;;;5.07;2.58;;;;;;;;;;5012859;28;20029;-86
2023/08/04 11:58:30;;;;;;;5.35;2.50;;;;;;;;;;5013836;28;20135;-86
2023/08/04 12:00:56;;;;;;;6.60;2.55;;;;;;;;;;5013202;28;20172;-86
2023/08/04 12:03:21;;;;;;;3.10;2.05;;;;;;;;;;5012918;28;20083;-87
2023/08/04 12:05:47;;;;;;;5.65;2.47;;;;;;;;;;5013340;28;20038;-86
2023/08/04 12:08:13;;;;;;;7.53;2.10;;;;;;;;;;5012488;28;20124;-87
2023/08/04 12:10:38;;;;;;;4.88;2.38;;;;;;;;;;5010812;28;20041;-86
2023/08/04 12:13:05;;;;;;;2.83;2.40;;;;;;;;;;5027896;28;20056;-85
2023/08/04 12:15:51;;;;;;;4.15;2.20;;;;;;;;;;5027965;28;20033;-85
2023/08/04 12:18:23;;;;;;;5.47;2.38;;;;;;;;;;5006970;28;20041;-85
2023/08/04 12:20:49;;;;;;;3.90;2.03;;;;;;;;;;5028632;28;20046;-86
2023/08/04 12:23:15;;;;;;;4.25;2.20;;;;;;;;;;4995012;28;20544;-87
2023/08/04 12:25:40;;;;;;;7.05;2.55;;;;;;;;;;5011890;28;20041;-87
2023/08/04 12:28:05;;;;;;;4.30;2.20;;;;;;;;;;5012788;28;20093;-85
2023/08/04 12:30:31;;;;;;;6.50;2.30;;;;;;;;;;5028195;28;20073;-87
2023/08/04 12:32:56;;;;;;;3.47;2.42;;;;;;;;;;5005033;28;20113;-86
2023/08/04 12:35:23;;;;;;;4.85;2.50;;;;;;;;;;5003591;28;20493;-86
2023/08/04 12:37:49;;;;;;;5.15;2.22;;;;;;;;;;5011807;28;20417;-86
2023/08/04 12:40:16;;;;;;;3.08;2.30;;;;;;;;;;4995594;28;20037;-87
2023/08/04 12:42:41;;;;;;;4.57;2.30;;;;;;;;;;5011304;28;20026;-85
2023/08/04 12:45:07;;;;;;;3.47;2.10;;;;;;;;;;4992264;28;20529;-87
2023/08/04 12:47:34;;;;;;;4.10;2.08;;;;;;;;;;5006787;28;20508;-85
2023/08/04 12:49:59;;;;;;;6.22;2.63;;;;;;;;;;4996058;28;20037;-87
2023/08/04 12:52:25;;;;;;;5.78;2.03;;;;;;;;;;5011529;28;20030;-86
2023/08/04 12:54:52;;;;;;;3.00;1.98;;;;;;;;;;4995007;28;20029;-86
2023/08/04 12:57:17;;;;;;;18.13;2.45;;;;;;;;;;4994703;28;20061;-85
2023/08/04 12:59:43;;;;;;;3.15;2.10;;;;;;;;;;5011720;28;20108;-86
2023/08/04 13:02:08;;;;;;;2.85;2.30;;;;;;;;;;4995400;28;20064;-88
2023/08/04 13:04:34;;;;;;;4.95;2.13;;;;;;;;;;4999024;28;20405;-86
2023/08/04 13:07:01;;;;;;;4.78;2.25;;;;;;;;;;5014982;28;20433;-85
2023/08/04 13:09:27;;;;;;;4.45;2.22;;;;;;;;;;5016220;28;20096;-85
2023/08/04 13:11:52;;;;;;;6.22;2.30;;;;;;;;;;5016127;28;20030;-86
2023/08/04 13:14:17;;;;;;;3.78;2.30;;;;;;;;;;5031485;28;20056;-88
2023/08/04 13:16:43;;;;;;;4.88;2.20;;;;;;;;;;5014845;28;20440;-86
2023/08/04 13:19:08;;;;;;;4.60;2.03;;;;;;;;;;5016537;28;20026;-86
2023/08/04 13:21:34;;;;;;;4.40;2.10;;;;;;;;;;5015504;28;20058;-87
2023/08/04 13:23:59;;;;;;;3.47;2.22;;;;;;;;;;5031443;28;20072;-85
2023/08/04 13:26:25;;;;;;;5.45;2.20;;;;;;;;;;5015900;28;20489;-88
2023/08/04 13:28:51;;;;;;;5.78;2.50;;;;;;;;;;5015926;28;20032;-87
2023/08/04 13:31:16;;;;;;;5.22;2.60;;;;;;;;;;5014428;28;20037;-86
2023/08/04 13:33:41;;;;;;;6.50;2.50;;;;;;;;;;5014576;28;20481;-86
2023/08/04 13:36:07;;;;;;;3.00;2.20;;;;;;;;;;5014445;28;20169;-87
2023/08/04 13:38:32;;;;;;;9.07;2.40;;;;;;;;;;5012817;28;20030;-86
2023/08/04 13:40:58;;;;;;;6.78;2.42;;;;;;;;;;5015032;28;20033;-86
2023/08/04 13:43:23;;;;;;;5.38;2.22;;;;;;;;;;5028608;28;20041;-86
2023/08/04 13:45:49;;;;;;;5.00;2.47;;;;;;;;;;5017018;28;20033;-86
2023/08/04 13:48:14;;;;;;;6.03;2.42;;;;;;;;;;5015581;28;20485;-86
2023/08/04 13:50:40;;;;;;;4.90;2.60;;;;;;;;;;5014976;28;20025;-87
2023/08/04 13:53:05;;;;;;;4.63;2.70;;;;;;;;;;5015951;28;20049;-86
2023/08/04 13:55:33;;;;;;;9.57;2.88;;;;;;;;;;5013687;28;20080;-88
2023/08/04 13:57:58;;;;;;;7.03;2.80;;;;;;;;;;5013756;28;20041;-87
2023/08/04 14:00:24;;;;;;;4.97;2.63;;;;;;;;;;5015699;28;20070;-87
2023/08/04 14:03:14;;;;;;;3.58;2.78;;;;;;;;;;5015951;28;20040;-85
2023/08/04 14:05:40;;;;;;;6.75;2.67;;;;;;;;;;5015117;28;20030;-86
2023/08/04 14:08:05;;;;;;;4.18;2.78;;;;;;;;;;5011555;28;20087;-86
2023/08/04 14:10:31;;;;;;;5.95;2.70;;;;;;;;;;5015372;28;20034;-86
2023/08/04 14:12:56;;;;;;;5.85;3.00;;;;;;;;;;5014940;28;20572;-86
2023/08/04 14:15:23;;;;;;;5.57;2.72;;;;;;;;;;5015451;28;20049;-87
2023/08/04 14:17:49;;;;;;;6.75;3.00;;;;;;;;;;5015457;28;20041;-87
2023/08/04 14:20:14;;;;;;;6.97;2.80;;;;;;;;;;5014410;28;20447;-86
2023/08/04 14:22:40;;;;;;;6.30;3.03;;;;;;;;;;5006348;28;20026;-86
2023/08/04 14:25:05;;;;;;;5.35;2.70;;;;;;;;;;5014129;28;20041;-87
2023/08/04 14:27:31;;;;;;;4.10;2.53;;;;;;;;;;5030463;28;20034;-87
2023/08/04 14:29:57;;;;;;;6.88;3.00;;;;;;;;;;5014209;28;20440;-86